createdAt,value
2018-07-19T00:02:21.733Z,19.30
2018-07-19T00:04:50.598Z,19.20
2018-07-19T00:07:19.408Z,19.20
2018-07-19T00:09:48.325Z,19.10
2018-07-19T00:12:26.912Z,19.10
2018-07-19T00:14:55.702Z,19.00
2018-07-19T00:17:24.484Z,19.00
2018-07-19T00:19:53.291Z,18.90
2018-07-19T00:22:22.056Z,18.90
2018-07-19T00:24:50.949Z,18.90
2018-07-19T00:27:19.777Z,18.80
2018-07-19T00:29:48.561Z,18.80
2018-07-19T00:32:17.480Z,18.70
2018-07-19T00:34:46.294Z,18.70
2018-07-19T00:37:15.136Z,18.70
2018-07-19T00:39:43.955Z,18.60
2018-07-19T00:42:12.809Z,18.50
2018-07-19T00:44:41.662Z,18.50
2018-07-19T00:47:10.457Z,18.50
2018-07-19T00:49:39.349Z,18.40
2018-07-19T00:52:08.125Z,18.40
2018-07-19T00:54:36.825Z,18.30
2018-07-19T00:57:05.970Z,18.30
2018-07-19T00:59:34.905Z,18.30
2018-07-19T01:02:03.684Z,18.20
2018-07-19T01:04:32.521Z,18.20
2018-07-19T01:07:01.285Z,18.10
2018-07-19T01:09:30.129Z,18.10
2018-07-19T01:11:58.870Z,18.00
2018-07-19T01:14:27.653Z,18.00
2018-07-19T01:16:56.421Z,17.90
2018-07-19T01:19:25.293Z,17.90
2018-07-19T01:21:54.103Z,17.90
2018-07-19T01:24:22.911Z,17.80
2018-07-19T01:26:51.729Z,17.80
2018-07-19T01:29:20.545Z,17.80
2018-07-19T01:31:49.333Z,17.70
2018-07-19T01:34:18.103Z,17.70
2018-07-19T01:36:46.948Z,17.60
2018-07-19T01:39:15.745Z,17.60
2018-07-19T01:42:23.089Z,17.60
2018-07-19T01:44:51.970Z,17.50
2018-07-19T01:47:20.732Z,17.50
2018-07-19T01:49:49.517Z,17.50
2018-07-19T01:52:18.285Z,17.40
2018-07-19T01:54:47.098Z,17.40
2018-07-19T01:57:16.834Z,17.40
2018-07-19T01:59:46.381Z,17.30
2018-07-19T02:02:15.293Z,17.40
2018-07-19T02:04:44.086Z,17.30
2018-07-19T02:07:12.889Z,17.30
2018-07-19T02:09:41.759Z,17.20
2018-07-19T02:12:10.577Z,17.20
2018-07-19T02:17:07.961Z,17.20
2018-07-19T02:19:36.800Z,17.10
2018-07-19T02:22:05.597Z,17.10
2018-07-19T02:24:34.406Z,17.10
2018-07-19T02:27:03.197Z,17.00
2018-07-19T02:32:00.521Z,17.00
2018-07-19T02:34:29.321Z,17.00
2018-07-19T02:36:58.125Z,16.90
2018-07-19T02:39:26.966Z,16.90
2018-07-19T02:41:55.761Z,16.90
2018-07-19T02:44:24.517Z,16.80
2018-07-19T02:46:59.808Z,16.80
2018-07-19T02:49:28.613Z,16.80
2018-07-19T02:51:57.452Z,16.80
2018-07-19T02:54:26.281Z,16.80
2018-07-19T02:56:55.053Z,16.70
2018-07-19T02:59:23.897Z,16.70
2018-07-19T03:01:52.689Z,16.60
2018-07-19T03:04:21.486Z,16.60
2018-07-19T03:06:50.220Z,16.60
2018-07-19T03:09:19.052Z,16.60
2018-07-19T03:11:47.909Z,16.50
2018-07-19T03:14:16.689Z,16.50
2018-07-19T03:16:45.504Z,16.50
2018-07-19T03:19:14.273Z,16.50
2018-07-19T03:21:43.182Z,16.40
2018-07-19T03:24:11.958Z,16.40
2018-07-19T03:26:40.935Z,16.40
2018-07-19T03:29:09.773Z,16.40
2018-07-19T03:31:38.525Z,16.40
2018-07-19T03:34:07.397Z,16.40
2018-07-19T03:36:36.200Z,16.40
2018-07-19T03:39:07.766Z,16.40
2018-07-19T03:41:36.609Z,16.40
2018-07-19T03:44:05.661Z,16.40
2018-07-19T03:46:34.533Z,16.40
2018-07-19T03:49:03.382Z,16.50
2018-07-19T03:51:32.153Z,16.50
2018-07-19T03:54:01.042Z,16.50
2018-07-19T03:56:29.793Z,16.50
2018-07-19T03:58:58.636Z,16.50
2018-07-19T04:01:27.452Z,16.50
2018-07-19T04:03:56.210Z,16.50
2018-07-19T04:06:24.986Z,16.50
2018-07-19T04:08:53.817Z,16.50
2018-07-19T04:11:22.572Z,16.50
2018-07-19T04:13:51.421Z,16.50
2018-07-19T04:16:20.266Z,16.50
2018-07-19T04:18:49.009Z,16.40
2018-07-19T04:23:46.289Z,16.40
2018-07-19T04:26:15.053Z,16.40
2018-07-19T04:28:48.953Z,16.30
2018-07-19T04:31:17.725Z,16.30
2018-07-19T04:33:46.585Z,16.20
2018-07-19T04:36:15.377Z,16.30
2018-07-19T04:38:44.160Z,16.30
2018-07-19T04:41:13.049Z,16.30
2018-07-19T04:43:41.881Z,16.30
2018-07-19T04:46:10.676Z,16.30
2018-07-19T04:48:39.457Z,16.30
2018-07-19T04:51:08.291Z,16.30
2018-07-19T04:53:37.127Z,16.30
2018-07-19T04:56:05.961Z,16.30
2018-07-19T04:58:34.798Z,16.30
2018-07-19T05:01:03.555Z,16.40
2018-07-19T05:03:32.363Z,16.40
2018-07-19T05:06:01.173Z,16.40
2018-07-19T05:08:29.993Z,16.50
2018-07-19T05:10:58.810Z,16.50
2018-07-19T05:13:27.609Z,16.50
2018-07-19T05:15:56.456Z,16.50
2018-07-19T05:20:53.789Z,16.50
2018-07-19T05:23:22.546Z,16.50
2018-07-19T05:25:51.398Z,16.60
2018-07-19T05:28:23.285Z,16.60
2018-07-19T05:30:52.077Z,16.60
2018-07-19T05:33:20.829Z,16.70
2018-07-19T05:35:49.661Z,16.70
2018-07-19T05:38:18.449Z,16.80
2018-07-19T05:40:47.348Z,16.70
2018-07-19T05:43:16.130Z,16.70
2018-07-19T05:45:44.961Z,16.80
2018-07-19T05:48:13.730Z,16.80
2018-07-19T05:50:43.685Z,16.80
2018-07-19T05:53:12.764Z,16.80
2018-07-19T05:55:41.617Z,16.90
2018-07-19T05:58:10.448Z,16.90
2018-07-19T06:00:39.150Z,16.90
2018-07-19T06:03:07.893Z,17.00
2018-07-19T06:05:36.709Z,17.00
2018-07-19T06:08:05.529Z,17.00
2018-07-19T06:10:34.469Z,17.10
2018-07-19T06:13:03.364Z,17.10
2018-07-19T06:15:32.118Z,17.10
2018-07-19T06:18:15.389Z,17.10
2018-07-19T06:20:48.252Z,17.20
2018-07-19T06:23:23.329Z,17.30
2018-07-19T06:25:52.772Z,17.30
2018-07-19T06:28:22.050Z,17.40
2018-07-19T06:30:50.853Z,17.40
2018-07-19T06:33:32.077Z,17.50
2018-07-19T06:36:00.909Z,17.60
2018-07-19T06:38:29.717Z,17.70
2018-07-19T06:40:58.516Z,17.80
2018-07-19T06:43:27.250Z,17.90
2018-07-19T06:45:55.972Z,18.00
2018-07-19T06:48:24.817Z,18.10
2018-07-19T06:50:53.656Z,18.20
2018-07-19T06:53:22.526Z,18.30
2018-07-19T06:58:42.564Z,18.40
2018-07-19T07:01:11.281Z,18.50
2018-07-19T07:03:40.271Z,18.60
2018-07-19T07:06:09.097Z,18.60
2018-07-19T07:08:37.938Z,18.70
2018-07-19T07:11:06.676Z,18.80
2018-07-19T07:13:35.441Z,18.90
2018-07-19T07:16:04.333Z,19.00
2018-07-19T07:18:33.080Z,19.00
2018-07-19T07:21:01.846Z,19.20
2018-07-19T07:23:30.593Z,19.20
2018-07-19T07:25:59.477Z,19.30
2018-07-19T07:28:28.254Z,19.40
2018-07-19T07:34:00.539Z,19.50
2018-07-19T07:36:40.237Z,19.60
2018-07-19T07:39:10.178Z,19.70
2018-07-19T07:41:39.119Z,19.80
2018-07-19T07:44:08.061Z,19.90
2018-07-19T07:46:36.705Z,19.90
2018-07-19T07:49:05.786Z,20.00
2018-07-19T07:51:34.521Z,20.10
2018-07-19T07:54:03.361Z,20.20
2018-07-19T07:56:32.106Z,20.30
2018-07-19T07:59:00.836Z,20.40
2018-07-19T08:04:00.293Z,20.50
2018-07-19T08:06:29.109Z,20.60
2018-07-19T08:08:58.080Z,20.60
2018-07-19T08:11:26.817Z,20.70
2018-07-19T08:14:00.545Z,20.80
2018-07-19T08:16:29.349Z,20.90
2018-07-19T08:19:00.149Z,20.90
2018-07-19T08:21:29.891Z,21.00
2018-07-19T08:23:58.853Z,21.00
2018-07-19T08:26:27.737Z,21.10
2018-07-19T08:28:56.934Z,21.20
2018-07-19T08:31:25.817Z,21.30
2018-07-19T08:33:58.903Z,21.30
2018-07-19T08:36:27.741Z,21.40
2018-07-19T08:38:56.477Z,21.40
2018-07-19T08:41:35.962Z,21.50
2018-07-19T08:44:04.773Z,21.50
2018-07-19T08:46:33.601Z,21.60
2018-07-19T08:49:02.604Z,21.80
2018-07-19T08:51:31.477Z,21.80
2018-07-19T08:54:13.845Z,21.90
2018-07-19T08:56:42.723Z,22.00
2018-07-19T08:59:11.391Z,22.10
2018-07-19T09:01:40.613Z,22.10
2018-07-19T09:04:09.529Z,22.20
2018-07-19T09:06:38.321Z,22.30
2018-07-19T09:09:08.561Z,22.40
2018-07-19T09:11:41.517Z,22.50
2018-07-19T09:14:10.369Z,22.60
2018-07-19T09:16:39.117Z,22.80
2018-07-19T09:19:07.863Z,22.80
2018-07-19T09:21:36.701Z,22.80
2018-07-19T09:24:05.583Z,22.80
2018-07-19T09:26:34.372Z,22.80
2018-07-19T09:29:03.177Z,22.90
2018-07-19T09:31:32.005Z,22.90
2018-07-19T09:34:00.789Z,23.10
2018-07-19T09:36:29.681Z,23.20
2018-07-19T09:38:58.521Z,23.40
2018-07-19T09:41:27.298Z,23.40
2018-07-19T09:43:56.109Z,23.50
2018-07-19T09:48:53.355Z,23.60
2018-07-19T09:51:22.131Z,23.80
2018-07-19T09:56:47.634Z,24.00
2018-07-19T09:59:16.686Z,24.20
2018-07-19T10:01:45.523Z,24.30
2018-07-19T10:04:14.242Z,24.20
2018-07-19T10:06:43.106Z,24.00
2018-07-19T10:09:11.896Z,24.00
2018-07-19T10:11:40.685Z,24.00
2018-07-19T10:14:09.493Z,24.10
2018-07-19T10:16:38.262Z,24.10
2018-07-19T10:19:20.461Z,24.20
2018-07-19T10:21:49.216Z,24.20
2018-07-19T10:24:18.306Z,24.20
2018-07-19T10:26:46.958Z,24.30
2018-07-19T10:29:15.692Z,24.40
2018-07-19T10:31:44.803Z,24.50
2018-07-19T10:34:13.612Z,24.60
2018-07-19T10:36:42.300Z,24.60
2018-07-19T10:39:11.190Z,24.50
2018-07-19T10:41:39.958Z,24.50
2018-07-19T10:44:08.864Z,24.60
2018-07-19T10:46:38.917Z,24.70
2018-07-19T10:49:07.679Z,24.80
2018-07-19T10:51:36.693Z,25.00
2018-07-19T10:54:05.534Z,25.00
2018-07-19T10:56:34.356Z,25.00
2018-07-19T10:59:03.233Z,25.00
2018-07-19T11:01:32.236Z,25.00
2018-07-19T11:04:01.065Z,25.20
2018-07-19T11:06:29.994Z,25.20
2018-07-19T11:08:58.714Z,25.20
2018-07-19T11:11:27.569Z,25.20
2018-07-19T11:13:57.427Z,25.20
2018-07-19T11:16:26.241Z,25.20
2018-07-19T11:18:55.077Z,25.20
2018-07-19T11:21:24.101Z,25.40
2018-07-19T11:23:52.918Z,25.50
2018-07-19T11:26:21.769Z,25.70
2018-07-19T11:28:50.694Z,25.70
2018-07-19T11:31:19.472Z,25.70
2018-07-19T11:33:52.330Z,25.60
2018-07-19T11:36:21.057Z,25.60
2018-07-19T11:41:28.173Z,25.60
2018-07-19T11:43:56.916Z,25.60
2018-07-19T11:46:25.784Z,25.50
2018-07-19T11:48:54.662Z,25.50
2018-07-19T11:54:14.562Z,26.00
2018-07-19T11:56:43.333Z,26.00
2018-07-19T11:59:12.174Z,25.90
2018-07-19T12:01:47.762Z,25.80
2018-07-19T12:04:16.490Z,25.80
2018-07-19T12:06:45.332Z,25.80
2018-07-19T12:09:18.197Z,25.80
2018-07-19T12:11:47.090Z,25.90
2018-07-19T12:14:15.961Z,25.90
2018-07-19T12:16:44.717Z,25.80
2018-07-19T12:19:13.601Z,25.80
2018-07-19T12:21:42.432Z,25.80
2018-07-19T12:24:11.258Z,25.80
2018-07-19T12:26:40.077Z,26.00
2018-07-19T12:29:09.941Z,26.00
2018-07-19T12:31:47.889Z,26.20
2018-07-19T12:34:16.670Z,26.40
2018-07-19T12:37:00.868Z,26.60
2018-07-19T12:39:29.901Z,26.70
2018-07-19T12:42:00.093Z,26.70
2018-07-19T12:44:29.005Z,26.70
2018-07-19T12:46:57.853Z,26.50
2018-07-19T12:55:12.013Z,26.60
2018-07-19T12:57:40.964Z,26.70
2018-07-19T13:00:09.766Z,26.80
2018-07-19T13:02:45.225Z,26.90
2018-07-19T13:05:14.149Z,27.00
2018-07-19T13:07:42.941Z,27.10
2018-07-19T13:12:45.814Z,27.20
2018-07-19T13:15:14.863Z,27.20
2018-07-19T13:17:43.551Z,27.20
2018-07-19T13:20:12.347Z,27.20
2018-07-19T13:22:41.139Z,27.30
2018-07-19T13:25:09.975Z,27.50
2018-07-19T13:27:38.903Z,27.50
2018-07-19T13:30:07.647Z,27.60
2018-07-19T13:32:36.525Z,27.60
2018-07-19T13:35:05.490Z,27.70
2018-07-19T13:37:34.290Z,27.80
2018-07-19T13:40:03.114Z,27.90
2018-07-19T13:42:31.988Z,28.00
2018-07-19T13:45:00.749Z,28.00
2018-07-19T13:47:29.586Z,27.90
2018-07-19T13:49:58.473Z,27.80
2018-07-19T13:52:39.192Z,27.80
2018-07-19T13:55:07.918Z,27.90
2018-07-19T13:57:36.717Z,27.90
2018-07-19T14:00:05.577Z,27.90
2018-07-19T14:02:34.417Z,27.90
2018-07-19T14:07:31.658Z,28.00
2018-07-19T14:10:00.481Z,28.00
2018-07-19T14:12:29.277Z,28.00
2018-07-19T14:14:58.114Z,27.90
2018-07-19T14:17:26.837Z,28.00
2018-07-19T14:19:59.681Z,28.00
2018-07-19T14:22:28.409Z,28.00
2018-07-19T14:24:57.242Z,28.00
2018-07-19T14:27:35.269Z,28.10
2018-07-19T14:30:04.845Z,28.10
2018-07-19T14:32:33.597Z,28.20
2018-07-19T14:35:02.466Z,28.30
2018-07-19T14:37:31.265Z,28.40
2018-07-19T14:40:00.070Z,28.50
2018-07-19T14:42:32.054Z,28.50
2018-07-19T14:45:00.825Z,28.50
2018-07-19T14:47:29.617Z,28.50
2018-07-19T14:49:58.545Z,28.60
2018-07-19T14:52:27.296Z,28.70
2018-07-19T14:54:56.149Z,28.80
2018-07-19T14:57:25.030Z,28.90
2018-07-19T14:59:53.840Z,28.80
2018-07-19T15:02:22.817Z,28.80
2018-07-19T15:04:51.594Z,28.80
2018-07-19T15:07:20.359Z,28.90
2018-07-19T15:09:50.217Z,29.10
2018-07-19T15:12:19.070Z,29.10
2018-07-19T15:14:54.769Z,29.00
2018-07-19T15:17:23.533Z,29.00
2018-07-19T15:19:52.413Z,29.00
2018-07-19T15:22:25.208Z,29.10
2018-07-19T15:24:53.978Z,29.30
2018-07-19T15:27:29.538Z,29.20
2018-07-19T15:29:58.281Z,29.00
2018-07-19T15:32:39.817Z,29.00
2018-07-19T15:35:08.699Z,29.10
2018-07-19T15:37:38.456Z,29.20
2018-07-19T15:40:16.242Z,29.20
2018-07-19T15:42:45.059Z,29.30
2018-07-19T15:45:13.909Z,29.30
2018-07-19T15:47:42.714Z,29.40
2018-07-19T15:50:11.600Z,29.50
2018-07-19T15:52:40.441Z,29.50
2018-07-19T15:55:09.284Z,29.60
2018-07-19T15:57:38.023Z,29.70
2018-07-19T16:00:06.962Z,29.80
2018-07-19T16:02:37.817Z,29.90
2018-07-19T16:05:06.664Z,30.20
2018-07-19T16:07:51.216Z,30.70
2018-07-19T16:10:19.962Z,31.20
2018-07-19T16:12:52.757Z,31.80
2018-07-19T16:15:21.538Z,32.10
2018-07-19T16:17:50.276Z,32.60
2018-07-19T16:22:48.610Z,33.40
2018-07-19T16:25:22.437Z,33.60
2018-07-19T16:27:51.277Z,34.00
2018-07-19T16:30:24.163Z,34.40
2018-07-19T16:32:57.094Z,34.50
2018-07-19T16:35:25.862Z,34.70
2018-07-19T16:37:56.718Z,35.30
2018-07-19T16:40:25.592Z,35.40
2018-07-19T16:42:54.471Z,35.50
2018-07-19T16:45:23.189Z,35.30
2018-07-19T16:47:52.298Z,35.10
2018-07-19T16:50:21.229Z,35.00
2018-07-19T16:52:50.029Z,35.10
2018-07-19T16:55:19.041Z,35.30
2018-07-19T16:57:47.817Z,34.90
2018-07-19T17:00:16.602Z,34.80
2018-07-19T17:02:45.397Z,35.10
2018-07-19T17:05:14.145Z,35.00
2018-07-19T17:07:42.886Z,34.90
2018-07-19T17:10:11.718Z,34.80
2018-07-19T17:12:40.701Z,34.90
2018-07-19T17:15:09.522Z,34.80
2018-07-19T17:17:38.301Z,34.70
2018-07-19T17:20:07.082Z,35.00
2018-07-19T17:22:36.105Z,35.40
2018-07-19T17:25:04.961Z,35.70
2018-07-19T17:27:33.761Z,35.80
2018-07-19T17:30:02.580Z,36.20
2018-07-19T17:32:33.356Z,36.20
2018-07-19T17:35:02.141Z,35.60
2018-07-19T17:37:30.849Z,35.20
2018-07-19T17:40:12.406Z,34.50
2018-07-19T17:42:41.281Z,34.10
2018-07-19T17:45:10.086Z,34.10
2018-07-19T17:47:39.000Z,34.60
2018-07-19T17:50:15.509Z,35.20
2018-07-19T17:52:44.290Z,36.00
2018-07-19T17:55:13.075Z,36.70
2018-07-19T17:57:41.925Z,37.00
2018-07-19T18:00:10.857Z,36.90
2018-07-19T18:02:39.661Z,36.40
2018-07-19T18:05:08.409Z,36.10
2018-07-19T18:07:37.182Z,35.70
2018-07-19T18:12:34.442Z,34.50
2018-07-19T18:15:03.269Z,33.90
2018-07-19T18:17:32.041Z,33.40
2018-07-19T18:20:00.829Z,32.90
2018-07-19T18:22:29.562Z,32.90
2018-07-19T18:24:58.419Z,33.10
2018-07-19T18:27:27.289Z,33.40
2018-07-19T18:29:56.045Z,34.10
2018-07-19T18:32:24.882Z,34.00
2018-07-19T18:34:53.605Z,33.40
2018-07-19T18:37:22.412Z,32.80
2018-07-19T18:39:51.217Z,32.10
2018-07-19T18:42:20.013Z,31.90
2018-07-19T18:44:48.772Z,31.90
2018-07-19T18:47:17.645Z,32.00
2018-07-19T18:49:46.501Z,31.90
2018-07-19T18:52:15.209Z,31.40
2018-07-19T18:54:43.950Z,30.80
2018-07-19T18:59:41.371Z,29.50
2018-07-19T19:02:10.190Z,29.40
2018-07-19T19:04:42.395Z,29.30
2018-07-19T19:07:11.116Z,29.00
2018-07-19T19:09:39.972Z,28.60
2018-07-19T19:14:37.274Z,27.90
2018-07-19T19:17:06.161Z,27.50
2018-07-19T19:19:38.114Z,27.30
2018-07-19T19:22:06.946Z,27.00
2018-07-19T19:24:36.729Z,26.70
2018-07-19T19:27:05.620Z,26.50
2018-07-19T19:29:34.422Z,26.20
2018-07-19T19:32:09.546Z,26.00
2018-07-19T19:34:38.390Z,25.90
2018-07-19T19:39:35.637Z,25.50
2018-07-19T19:42:04.496Z,25.30
2018-07-19T19:44:33.304Z,25.20
2018-07-19T19:47:02.070Z,25.10
2018-07-19T19:49:42.373Z,24.90
2018-07-19T19:52:11.110Z,24.80
2018-07-19T19:54:39.969Z,24.60
2018-07-19T19:57:08.672Z,24.50
2018-07-19T19:59:37.541Z,24.40
2018-07-19T20:04:37.050Z,24.10
2018-07-19T20:07:05.937Z,24.00
2018-07-19T20:09:34.693Z,23.90
2018-07-19T20:12:03.534Z,23.80
2018-07-19T20:14:33.378Z,23.70
2018-07-19T20:17:04.271Z,23.60
2018-07-19T20:19:33.058Z,23.50
2018-07-19T20:24:32.507Z,23.30
2018-07-19T20:27:01.294Z,23.30
2018-07-19T20:29:30.319Z,23.20
2018-07-19T20:31:59.053Z,23.10
2018-07-19T20:34:28.010Z,23.00
2018-07-19T20:36:56.722Z,22.90
2018-07-19T20:39:25.609Z,22.80
2018-07-19T20:41:58.382Z,22.70
2018-07-19T20:44:27.226Z,22.70
2018-07-19T20:46:55.954Z,22.60
2018-07-19T20:49:24.758Z,22.50
2018-07-19T20:51:53.654Z,22.50
2018-07-19T20:56:56.921Z,22.40
2018-07-19T20:59:26.858Z,22.30
2018-07-19T21:01:55.719Z,22.20
2018-07-19T21:04:24.549Z,22.20
2018-07-19T21:06:53.449Z,22.10
2018-07-19T21:09:22.462Z,22.00
2018-07-19T21:11:51.324Z,21.90
2018-07-19T21:14:20.198Z,21.90
2018-07-19T21:16:49.164Z,21.80
2018-07-19T21:19:18.133Z,21.70
2018-07-19T21:21:46.989Z,21.60
2018-07-19T21:24:15.823Z,21.50
2018-07-19T21:26:44.661Z,21.40
2018-07-19T21:29:23.164Z,21.30
2018-07-19T21:31:52.013Z,21.30
2018-07-19T21:34:20.847Z,21.30
2018-07-19T21:36:49.713Z,21.20
2018-07-19T21:39:18.515Z,21.20
2018-07-19T21:41:47.326Z,21.20
2018-07-19T21:44:16.264Z,21.10
2018-07-19T21:49:36.406Z,21.10
2018-07-19T21:52:05.405Z,21.00
2018-07-19T21:54:54.573Z,20.90
2018-07-19T21:57:23.689Z,20.90
2018-07-19T21:59:52.521Z,20.70
2018-07-19T22:02:21.321Z,20.70
2018-07-19T22:04:51.042Z,20.60
2018-07-19T22:07:19.949Z,20.60
2018-07-19T22:09:48.665Z,20.50
2018-07-19T22:12:18.349Z,20.50
2018-07-19T22:14:47.153Z,20.40
2018-07-19T22:17:15.918Z,20.40
2018-07-19T22:19:44.699Z,20.30
2018-07-19T22:22:13.497Z,20.30
2018-07-19T22:24:42.301Z,20.20
2018-07-19T22:27:11.145Z,20.10
2018-07-19T22:29:40.094Z,20.10
2018-07-19T22:32:08.997Z,20.00
2018-07-19T22:34:37.811Z,20.00
2018-07-19T22:37:06.562Z,20.00
2018-07-19T22:39:35.321Z,19.90
2018-07-19T22:42:04.170Z,19.90
2018-07-19T22:44:32.953Z,19.80
2018-07-19T22:47:01.741Z,19.80
2018-07-19T22:49:30.653Z,19.80
2018-07-19T22:51:59.448Z,19.80
2018-07-19T22:54:28.265Z,19.70
2018-07-19T22:56:57.105Z,19.70
2018-07-19T22:59:25.925Z,19.60
2018-07-19T23:02:02.350Z,19.50
2018-07-19T23:04:31.270Z,19.40
2018-07-19T23:09:57.297Z,19.30
2018-07-19T23:12:26.122Z,19.30
2018-07-19T23:14:54.939Z,19.20
2018-07-19T23:17:24.845Z,19.10
2018-07-19T23:19:53.660Z,19.10
2018-07-19T23:22:26.994Z,19.00
2018-07-19T23:24:55.820Z,18.90
2018-07-19T23:27:24.641Z,18.90
2018-07-19T23:29:58.554Z,18.80
2018-07-19T23:32:27.358Z,18.80
2018-07-19T23:34:56.217Z,18.70
2018-07-19T23:43:19.385Z,18.70
2018-07-19T23:46:05.230Z,18.60
2018-07-19T23:48:34.011Z,18.60
2018-07-19T23:51:02.901Z,18.50
2018-07-19T23:53:31.621Z,18.40
2018-07-19T23:56:00.473Z,18.40
2018-07-19T23:58:31.397Z,18.40
